sensor_id;sensor_type;location;lat;lon;timestamp;temperature;humidity
31733;DHT22;18312;51.486;7.144;2024-03-06T00:00:09;5.20;99.90
31733;DHT22;18312;51.486;7.144;2024-03-06T00:02:39;5.20;99.90
31733;DHT22;18312;51.486;7.144;2024-03-06T00:05:07;5.10;99.90
31733;DHT22;18312;51.486;7.144;2024-03-06T00:07:34;5.20;99.90
31733;DHT22;18312;51.486;7.144;2024-03-06T00:10:02;5.20;99.90
31733;DHT22;18312;51.486;7.144;2024-03-06T00:12:30;5.10;99.90
31733;DHT22;18312;51.486;7.144;2024-03-06T00:14:57;5.20;99.90
31733;DHT22;18312;51.486;7.144;2024-03-06T00:17:26;5.30;99.90
31733;DHT22;18312;51.486;7.144;2024-03-06T00:19:53;5.30;99.90
31733;DHT22;18312;51.486;7.144;2024-03-06T00:22:20;5.30;99.90
31733;DHT22;18312;51.486;7.144;2024-03-06T00:24:47;5.30;99.90
31733;DHT22;18312;51.486;7.144;2024-03-06T00:27:14;5.20;99.90
31733;DHT22;18312;51.486;7.144;2024-03-06T00:29:41;5.20;99.90
31733;DHT22;18312;51.486;7.144;2024-03-06T00:32:08;5.20;99.90
31733;DHT22;18312;51.486;7.144;2024-03-06T00:34:37;5.10;99.90
31733;DHT22;18312;51.486;7.144;2024-03-06T00:37:04;5.10;99.90
31733;DHT22;18312;51.486;7.144;2024-03-06T00:39:31;5.10;99.90
31733;DHT22;18312;51.486;7.144;2024-03-06T00:41:58;5.10;99.90
31733;DHT22;18312;51.486;7.144;2024-03-06T00:44:25;5.10;99.90
31733;DHT22;18312;51.486;7.144;2024-03-06T00:46:52;5.00;99.90
31733;DHT22;18312;51.486;7.144;2024-03-06T00:49:19;5.00;99.90
31733;DHT22;18312;51.486;7.144;2024-03-06T00:51:48;4.80;99.90
31733;DHT22;18312;51.486;7.144;2024-03-06T00:54:15;4.70;99.90
31733;DHT22;18312;51.486;7.144;2024-03-06T00:56:42;4.60;99.90
31733;DHT22;18312;51.486;7.144;2024-03-06T00:59:09;4.50;99.90
31733;DHT22;18312;51.486;7.144;2024-03-06T01:01:37;4.50;99.90
31733;DHT22;18312;51.486;7.144;2024-03-06T01:04:04;4.60;99.90
31733;DHT22;18312;51.486;7.144;2024-03-06T01:06:31;4.40;99.90
31733;DHT22;18312;51.486;7.144;2024-03-06T01:09:00;4.30;99.90
31733;DHT22;18312;51.486;7.144;2024-03-06T01:11:27;4.30;99.90
31733;DHT22;18312;51.486;7.144;2024-03-06T01:13:54;4.30;99.90
31733;DHT22;18312;51.486;7.144;2024-03-06T01:16:21;4.30;99.90
31733;DHT22;18312;51.486;7.144;2024-03-06T01:18:48;4.20;99.90
31733;DHT22;18312;51.486;7.144;2024-03-06T01:21:15;4.10;99.90
31733;DHT22;18312;51.486;7.144;2024-03-06T01:23:41;4.10;99.90
31733;DHT22;18312;51.486;7.144;2024-03-06T01:26:10;4.20;99.90
31733;DHT22;18312;51.486;7.144;2024-03-06T01:28:39;4.20;99.90
31733;DHT22;18312;51.486;7.144;2024-03-06T01:31:06;4.20;99.90
31733;DHT22;18312;51.486;7.144;2024-03-06T01:33:33;4.10;99.90
31733;DHT22;18312;51.486;7.144;2024-03-06T01:36:01;4.10;99.90
31733;DHT22;18312;51.486;7.144;2024-03-06T01:38:28;4.00;99.90
31733;DHT22;18312;51.486;7.144;2024-03-06T01:40:55;4.00;99.90
31733;DHT22;18312;51.486;7.144;2024-03-06T01:43:24;3.90;99.90
31733;DHT22;18312;51.486;7.144;2024-03-06T01:45:52;3.90;99.90
31733;DHT22;18312;51.486;7.144;2024-03-06T01:48:21;3.90;99.90
31733;DHT22;18312;51.486;7.144;2024-03-06T01:50:48;3.90;99.90
31733;DHT22;18312;51.486;7.144;2024-03-06T01:53:16;3.90;99.90
31733;DHT22;18312;51.486;7.144;2024-03-06T01:55:44;3.90;99.90
31733;DHT22;18312;51.486;7.144;2024-03-06T01:58:12;4.00;99.90
31733;DHT22;18312;51.486;7.144;2024-03-06T02:00:40;4.00;99.90
31733;DHT22;18312;51.486;7.144;2024-03-06T02:03:08;4.00;99.90
31733;DHT22;18312;51.486;7.144;2024-03-06T02:05:35;3.90;99.90
31733;DHT22;18312;51.486;7.144;2024-03-06T02:08:06;3.80;99.90
31733;DHT22;18312;51.486;7.144;2024-03-06T02:10:33;3.80;99.90
31733;DHT22;18312;51.486;7.144;2024-03-06T02:13:00;3.80;99.90
31733;DHT22;18312;51.486;7.144;2024-03-06T02:15:27;3.80;99.90
31733;DHT22;18312;51.486;7.144;2024-03-06T02:17:57;3.80;99.90
31733;DHT22;18312;51.486;7.144;2024-03-06T02:20:27;3.60;99.90
31733;DHT22;18312;51.486;7.144;2024-03-06T02:22:54;3.50;99.90
31733;DHT22;18312;51.486;7.144;2024-03-06T02:25:21;3.60;99.90
31733;DHT22;18312;51.486;7.144;2024-03-06T02:27:50;3.50;99.90
31733;DHT22;18312;51.486;7.144;2024-03-06T02:30:19;3.60;99.90
31733;DHT22;18312;51.486;7.144;2024-03-06T02:32:47;3.40;99.90
31733;DHT22;18312;51.486;7.144;2024-03-06T02:35:14;3.40;99.90
31733;DHT22;18312;51.486;7.144;2024-03-06T02:37:42;3.40;99.90
31733;DHT22;18312;51.486;7.144;2024-03-06T02:40:10;3.40;99.90
31733;DHT22;18312;51.486;7.144;2024-03-06T02:42:37;3.40;99.90
31733;DHT22;18312;51.486;7.144;2024-03-06T02:45:06;3.30;99.90
31733;DHT22;18312;51.486;7.144;2024-03-06T02:47:33;3.30;99.90
31733;DHT22;18312;51.486;7.144;2024-03-06T02:50:00;3.20;99.90
31733;DHT22;18312;51.486;7.144;2024-03-06T02:52:27;3.10;99.90
31733;DHT22;18312;51.486;7.144;2024-03-06T02:54:55;3.20;99.90
31733;DHT22;18312;51.486;7.144;2024-03-06T02:57:22;3.20;99.90
31733;DHT22;18312;51.486;7.144;2024-03-06T02:59:49;3.10;99.90
31733;DHT22;18312;51.486;7.144;2024-03-06T03:02:18;2.90;99.90
31733;DHT22;18312;51.486;7.144;2024-03-06T03:04:45;2.90;99.90
31733;DHT22;18312;51.486;7.144;2024-03-06T03:07:12;2.80;99.90
31733;DHT22;18312;51.486;7.144;2024-03-06T03:09:39;2.70;99.90
31733;DHT22;18312;51.486;7.144;2024-03-06T03:12:07;2.70;99.90
31733;DHT22;18312;51.486;7.144;2024-03-06T03:14:36;2.80;99.90
31733;DHT22;18312;51.486;7.144;2024-03-06T03:17:03;2.70;99.90
31733;DHT22;18312;51.486;7.144;2024-03-06T03:19:31;2.50;99.90
31733;DHT22;18312;51.486;7.144;2024-03-06T03:21:58;2.50;99.90
31733;DHT22;18312;51.486;7.144;2024-03-06T03:24:25;2.60;99.90
31733;DHT22;18312;51.486;7.144;2024-03-06T03:26:52;2.70;99.90
31733;DHT22;18312;51.486;7.144;2024-03-06T03:29:20;2.70;99.90
31733;DHT22;18312;51.486;7.144;2024-03-06T03:31:47;2.60;99.90
31733;DHT22;18312;51.486;7.144;2024-03-06T03:34:14;2.60;99.90
31733;DHT22;18312;51.486;7.144;2024-03-06T03:36:42;2.50;99.90
31733;DHT22;18312;51.486;7.144;2024-03-06T03:39:12;2.50;99.90
31733;DHT22;18312;51.486;7.144;2024-03-06T03:41:45;2.50;99.90
31733;DHT22;18312;51.486;7.144;2024-03-06T03:44:12;2.60;99.90
31733;DHT22;18312;51.486;7.144;2024-03-06T03:46:41;2.70;99.90
31733;DHT22;18312;51.486;7.144;2024-03-06T03:49:08;2.90;99.90
31733;DHT22;18312;51.486;7.144;2024-03-06T03:51:35;2.90;99.90
31733;DHT22;18312;51.486;7.144;2024-03-06T03:54:03;2.90;99.90
31733;DHT22;18312;51.486;7.144;2024-03-06T03:56:30;3.00;99.90
31733;DHT22;18312;51.486;7.144;2024-03-06T03:58:57;3.10;99.90
31733;DHT22;18312;51.486;7.144;2024-03-06T04:01:25;3.20;99.90
31733;DHT22;18312;51.486;7.144;2024-03-06T04:03:54;3.20;99.90
31733;DHT22;18312;51.486;7.144;2024-03-06T04:06:21;3.20;99.90
31733;DHT22;18312;51.486;7.144;2024-03-06T04:08:48;3.30;99.90
31733;DHT22;18312;51.486;7.144;2024-03-06T04:11:16;3.30;99.90
31733;DHT22;18312;51.486;7.144;2024-03-06T04:13:43;3.40;99.90
31733;DHT22;18312;51.486;7.144;2024-03-06T04:16:16;3.40;99.90
31733;DHT22;18312;51.486;7.144;2024-03-06T04:18:43;3.50;99.90
31733;DHT22;18312;51.486;7.144;2024-03-06T04:21:12;3.50;99.90
31733;DHT22;18312;51.486;7.144;2024-03-06T04:23:46;3.60;99.90
31733;DHT22;18312;51.486;7.144;2024-03-06T04:26:13;3.50;99.90
31733;DHT22;18312;51.486;7.144;2024-03-06T04:28:41;3.50;99.90
31733;DHT22;18312;51.486;7.144;2024-03-06T04:31:08;3.70;99.90
31733;DHT22;18312;51.486;7.144;2024-03-06T04:33:35;3.70;99.90
31733;DHT22;18312;51.486;7.144;2024-03-06T04:36:03;3.70;99.90
31733;DHT22;18312;51.486;7.144;2024-03-06T04:38:32;3.80;99.90
31733;DHT22;18312;51.486;7.144;2024-03-06T04:41:00;3.80;99.90
31733;DHT22;18312;51.486;7.144;2024-03-06T04:43:27;3.80;99.90
31733;DHT22;18312;51.486;7.144;2024-03-06T04:45:54;4.00;99.90
31733;DHT22;18312;51.486;7.144;2024-03-06T04:48:21;4.20;99.90
31733;DHT22;18312;51.486;7.144;2024-03-06T04:50:48;4.10;99.90
31733;DHT22;18312;51.486;7.144;2024-03-06T04:53:16;4.00;99.90
31733;DHT22;18312;51.486;7.144;2024-03-06T04:55:44;4.10;99.90
31733;DHT22;18312;51.486;7.144;2024-03-06T04:58:11;4.00;99.90
31733;DHT22;18312;51.486;7.144;2024-03-06T05:00:38;4.20;99.90
31733;DHT22;18312;51.486;7.144;2024-03-06T05:03:05;4.20;99.90
31733;DHT22;18312;51.486;7.144;2024-03-06T05:05:32;4.20;99.90
31733;DHT22;18312;51.486;7.144;2024-03-06T05:07:59;4.10;99.90
31733;DHT22;18312;51.486;7.144;2024-03-06T05:10:26;4.10;99.90
31733;DHT22;18312;51.486;7.144;2024-03-06T05:12:55;4.20;99.90
31733;DHT22;18312;51.486;7.144;2024-03-06T05:15:22;4.10;99.90
31733;DHT22;18312;51.486;7.144;2024-03-06T05:17:49;4.10;99.90
31733;DHT22;18312;51.486;7.144;2024-03-06T05:20:16;4.10;99.90
31733;DHT22;18312;51.486;7.144;2024-03-06T05:22:43;4.10;99.90
31733;DHT22;18312;51.486;7.144;2024-03-06T05:25:10;4.00;99.90
31733;DHT22;18312;51.486;7.144;2024-03-06T05:27:37;4.00;99.90
31733;DHT22;18312;51.486;7.144;2024-03-06T05:30:06;3.90;99.90
31733;DHT22;18312;51.486;7.144;2024-03-06T05:32:34;3.80;99.90
31733;DHT22;18312;51.486;7.144;2024-03-06T05:35:01;3.80;99.90
31733;DHT22;18312;51.486;7.144;2024-03-06T05:37:28;3.70;99.90
31733;DHT22;18312;51.486;7.144;2024-03-06T05:39:55;3.70;99.90
31733;DHT22;18312;51.486;7.144;2024-03-06T05:42:22;3.50;99.90
31733;DHT22;18312;51.486;7.144;2024-03-06T05:44:49;3.30;99.90
31733;DHT22;18312;51.486;7.144;2024-03-06T05:47:20;3.30;99.90
31733;DHT22;18312;51.486;7.144;2024-03-06T05:49:47;3.30;99.90
31733;DHT22;18312;51.486;7.144;2024-03-06T05:52:16;3.20;99.90
31733;DHT22;18312;51.486;7.144;2024-03-06T05:54:44;3.00;99.90
31733;DHT22;18312;51.486;7.144;2024-03-06T05:57:13;3.00;99.90
31733;DHT22;18312;51.486;7.144;2024-03-06T05:59:41;2.90;99.90
31733;DHT22;18312;51.486;7.144;2024-03-06T06:02:08;2.90;99.90
31733;DHT22;18312;51.486;7.144;2024-03-06T06:04:38;2.90;99.90
31733;DHT22;18312;51.486;7.144;2024-03-06T06:07:05;2.90;99.90
31733;DHT22;18312;51.486;7.144;2024-03-06T06:09:32;3.00;99.90
31733;DHT22;18312;51.486;7.144;2024-03-06T06:11:59;3.00;99.90
31733;DHT22;18312;51.486;7.144;2024-03-06T06:14:26;3.00;99.90
31733;DHT22;18312;51.486;7.144;2024-03-06T06:16:55;3.00;99.90
31733;DHT22;18312;51.486;7.144;2024-03-06T06:19:22;2.90;99.90
31733;DHT22;18312;51.486;7.144;2024-03-06T06:21:54;2.90;99.90
31733;DHT22;18312;51.486;7.144;2024-03-06T06:24:21;3.00;99.90
31733;DHT22;18312;51.486;7.144;2024-03-06T06:26:48;3.10;99.90
31733;DHT22;18312;51.486;7.144;2024-03-06T06:29:15;3.20;99.90
31733;DHT22;18312;51.486;7.144;2024-03-06T06:31:42;3.20;99.90
31733;DHT22;18312;51.486;7.144;2024-03-06T06:34:10;3.30;99.90
31733;DHT22;18312;51.486;7.144;2024-03-06T06:36:38;3.20;99.90
31733;DHT22;18312;51.486;7.144;2024-03-06T06:39:07;3.20;99.90
31733;DHT22;18312;51.486;7.144;2024-03-06T06:41:36;3.30;99.90
31733;DHT22;18312;51.486;7.144;2024-03-06T06:44:03;3.30;99.90
31733;DHT22;18312;51.486;7.144;2024-03-06T06:46:30;3.40;99.90
31733;DHT22;18312;51.486;7.144;2024-03-06T06:48:57;3.50;99.90
31733;DHT22;18312;51.486;7.144;2024-03-06T06:51:24;3.50;99.90
31733;DHT22;18312;51.486;7.144;2024-03-06T06:53:51;3.40;99.90
31733;DHT22;18312;51.486;7.144;2024-03-06T06:56:19;3.40;99.90
31733;DHT22;18312;51.486;7.144;2024-03-06T06:58:49;3.50;99.90
31733;DHT22;18312;51.486;7.144;2024-03-06T07:01:16;3.60;99.90
31733;DHT22;18312;51.486;7.144;2024-03-06T07:03:44;3.70;99.90
31733;DHT22;18312;51.486;7.144;2024-03-06T07:06:11;3.80;99.90
31733;DHT22;18312;51.486;7.144;2024-03-06T07:08:38;3.90;99.90
31733;DHT22;18312;51.486;7.144;2024-03-06T07:11:05;3.80;99.90
31733;DHT22;18312;51.486;7.144;2024-03-06T07:13:33;3.90;99.90
31733;DHT22;18312;51.486;7.144;2024-03-06T07:16:02;4.00;99.90
31733;DHT22;18312;51.486;7.144;2024-03-06T07:18:29;4.10;99.90
31733;DHT22;18312;51.486;7.144;2024-03-06T07:20:55;4.40;99.90
31733;DHT22;18312;51.486;7.144;2024-03-06T07:23:22;6.10;99.90
31733;DHT22;18312;51.486;7.144;2024-03-06T07:25:49;6.40;99.90
31733;DHT22;18312;51.486;7.144;2024-03-06T07:28:16;7.00;99.90
31733;DHT22;18312;51.486;7.144;2024-03-06T07:30:46;7.90;99.90
31733;DHT22;18312;51.486;7.144;2024-03-06T07:33:13;7.90;99.90
31733;DHT22;18312;51.486;7.144;2024-03-06T07:35:40;6.90;99.90
31733;DHT22;18312;51.486;7.144;2024-03-06T07:38:07;6.40;99.90
31733;DHT22;18312;51.486;7.144;2024-03-06T07:40:35;6.10;99.90
31733;DHT22;18312;51.486;7.144;2024-03-06T07:43:02;6.10;99.90
31733;DHT22;18312;51.486;7.144;2024-03-06T07:45:29;6.60;99.90
31733;DHT22;18312;51.486;7.144;2024-03-06T07:47:58;8.80;99.90
31733;DHT22;18312;51.486;7.144;2024-03-06T07:50:25;10.40;99.90
31733;DHT22;18312;51.486;7.144;2024-03-06T07:52:52;11.00;99.90
31733;DHT22;18312;51.486;7.144;2024-03-06T07:55:20;12.40;99.90
31733;DHT22;18312;51.486;7.144;2024-03-06T07:57:47;13.90;97.40
31733;DHT22;18312;51.486;7.144;2024-03-06T08:00:15;14.10;93.30
31733;DHT22;18312;51.486;7.144;2024-03-06T08:02:45;14.30;93.60
31733;DHT22;18312;51.486;7.144;2024-03-06T08:05:17;14.70;92.00
31733;DHT22;18312;51.486;7.144;2024-03-06T08:07:47;15.80;91.10
31733;DHT22;18312;51.486;7.144;2024-03-06T08:10:14;17.10;89.40
31733;DHT22;18312;51.486;7.144;2024-03-06T08:12:44;16.90;84.70
31733;DHT22;18312;51.486;7.144;2024-03-06T08:15:14;15.70;88.50
31733;DHT22;18312;51.486;7.144;2024-03-06T08:17:43;16.70;86.30
31733;DHT22;18312;51.486;7.144;2024-03-06T08:20:11;16.70;84.60
31733;DHT22;18312;51.486;7.144;2024-03-06T08:22:40;16.40;87.00
31733;DHT22;18312;51.486;7.144;2024-03-06T08:25:09;16.00;88.40
31733;DHT22;18312;51.486;7.144;2024-03-06T08:27:38;14.10;92.30
31733;DHT22;18312;51.486;7.144;2024-03-06T08:30:06;12.00;99.90
31733;DHT22;18312;51.486;7.144;2024-03-06T08:32:35;11.10;99.90
31733;DHT22;18312;51.486;7.144;2024-03-06T08:35:03;10.50;99.90
31733;DHT22;18312;51.486;7.144;2024-03-06T08:37:31;11.60;99.90
31733;DHT22;18312;51.486;7.144;2024-03-06T08:40:00;13.10;99.90
31733;DHT22;18312;51.486;7.144;2024-03-06T08:42:28;13.70;99.90
31733;DHT22;18312;51.486;7.144;2024-03-06T08:44:55;13.30;99.90
31733;DHT22;18312;51.486;7.144;2024-03-06T08:47:22;13.20;99.90
31733;DHT22;18312;51.486;7.144;2024-03-06T08:49:49;14.20;98.20
31733;DHT22;18312;51.486;7.144;2024-03-06T08:52:16;15.30;95.20
31733;DHT22;18312;51.486;7.144;2024-03-06T08:54:43;15.90;93.30
31733;DHT22;18312;51.486;7.144;2024-03-06T08:57:13;15.80;92.80
31733;DHT22;18312;51.486;7.144;2024-03-06T08:59:41;14.80;94.70
31733;DHT22;18312;51.486;7.144;2024-03-06T09:02:13;13.70;98.90
31733;DHT22;18312;51.486;7.144;2024-03-06T09:04:40;12.90;99.90
31733;DHT22;18312;51.486;7.144;2024-03-06T09:07:08;12.00;99.90
31733;DHT22;18312;51.486;7.144;2024-03-06T09:09:36;11.30;99.90
31733;DHT22;18312;51.486;7.144;2024-03-06T09:12:04;10.70;99.90
31733;DHT22;18312;51.486;7.144;2024-03-06T09:14:33;10.10;99.90
31733;DHT22;18312;51.486;7.144;2024-03-06T09:17:00;9.90;99.90
31733;DHT22;18312;51.486;7.144;2024-03-06T09:19:28;10.30;99.90
31733;DHT22;18312;51.486;7.144;2024-03-06T09:21:55;10.40;99.90
31733;DHT22;18312;51.486;7.144;2024-03-06T09:24:23;10.10;99.90
31733;DHT22;18312;51.486;7.144;2024-03-06T09:26:53;9.90;99.90
31733;DHT22;18312;51.486;7.144;2024-03-06T09:29:20;9.80;99.90
31733;DHT22;18312;51.486;7.144;2024-03-06T09:31:48;9.50;99.90
31733;DHT22;18312;51.486;7.144;2024-03-06T09:34:16;9.60;99.90
31733;DHT22;18312;51.486;7.144;2024-03-06T09:36:47;9.50;99.90
31733;DHT22;18312;51.486;7.144;2024-03-06T09:39:15;9.70;99.90
31733;DHT22;18312;51.486;7.144;2024-03-06T09:41:43;9.90;99.90
31733;DHT22;18312;51.486;7.144;2024-03-06T09:44:11;10.00;99.90
31733;DHT22;18312;51.486;7.144;2024-03-06T09:46:40;10.10;99.90
31733;DHT22;18312;51.486;7.144;2024-03-06T09:49:22;9.90;99.90
31733;DHT22;18312;51.486;7.144;2024-03-06T09:51:59;9.90;99.90
31733;DHT22;18312;51.486;7.144;2024-03-06T09:54:35;9.90;99.90
31733;DHT22;18312;51.486;7.144;2024-03-06T09:57:02;10.20;99.90
31733;DHT22;18312;51.486;7.144;2024-03-06T09:59:40;10.10;99.90
31733;DHT22;18312;51.486;7.144;2024-03-06T10:02:39;10.40;99.90
31733;DHT22;18312;51.486;7.144;2024-03-06T10:05:22;10.50;99.90
31733;DHT22;18312;51.486;7.144;2024-03-06T10:07:53;10.20;99.90
31733;DHT22;18312;51.486;7.144;2024-03-06T10:10:20;9.80;99.90
31733;DHT22;18312;51.486;7.144;2024-03-06T10:12:51;10.00;99.90
31733;DHT22;18312;51.486;7.144;2024-03-06T10:15:20;10.10;99.90
31733;DHT22;18312;51.486;7.144;2024-03-06T10:17:49;10.40;99.90
31733;DHT22;18312;51.486;7.144;2024-03-06T10:20:20;10.30;99.90
31733;DHT22;18312;51.486;7.144;2024-03-06T10:23:16;10.40;99.90
31733;DHT22;18312;51.486;7.144;2024-03-06T10:25:55;10.40;99.90
31733;DHT22;18312;51.486;7.144;2024-03-06T10:28:23;10.70;99.90
31733;DHT22;18312;51.486;7.144;2024-03-06T10:30:51;10.60;99.90
31733;DHT22;18312;51.486;7.144;2024-03-06T10:33:19;10.80;99.90
31733;DHT22;18312;51.486;7.144;2024-03-06T10:35:48;10.60;99.90
31733;DHT22;18312;51.486;7.144;2024-03-06T10:38:15;10.60;99.90
31733;DHT22;18312;51.486;7.144;2024-03-06T10:41:10;10.20;99.90
31733;DHT22;18312;51.486;7.144;2024-03-06T10:44:42;10.00;99.90
31733;DHT22;18312;51.486;7.144;2024-03-06T10:47:30;9.80;99.90
31733;DHT22;18312;51.486;7.144;2024-03-06T10:50:42;10.00;99.90
31733;DHT22;18312;51.486;7.144;2024-03-06T10:53:26;10.40;99.90
31733;DHT22;18312;51.486;7.144;2024-03-06T10:55:55;10.70;99.90
31733;DHT22;18312;51.486;7.144;2024-03-06T10:58:24;10.90;99.90
31733;DHT22;18312;51.486;7.144;2024-03-06T11:00:52;10.90;99.90
31733;DHT22;18312;51.486;7.144;2024-03-06T11:03:24;11.10;99.90
31733;DHT22;18312;51.486;7.144;2024-03-06T11:05:52;11.00;99.90
31733;DHT22;18312;51.486;7.144;2024-03-06T11:08:19;11.30;99.90
31733;DHT22;18312;51.486;7.144;2024-03-06T11:10:48;11.30;99.90
31733;DHT22;18312;51.486;7.144;2024-03-06T11:13:23;11.40;99.90
31733;DHT22;18312;51.486;7.144;2024-03-06T11:15:52;11.60;99.90
31733;DHT22;18312;51.486;7.144;2024-03-06T11:18:42;11.80;99.90
31733;DHT22;18312;51.486;7.144;2024-03-06T11:21:28;12.00;99.90
31733;DHT22;18312;51.486;7.144;2024-03-06T11:24:15;12.40;99.90
31733;DHT22;18312;51.486;7.144;2024-03-06T11:26:52;12.40;99.90
31733;DHT22;18312;51.486;7.144;2024-03-06T11:29:21;12.40;99.90
31733;DHT22;18312;51.486;7.144;2024-03-06T11:32:03;12.80;99.90
31733;DHT22;18312;51.486;7.144;2024-03-06T11:34:33;12.60;99.90
31733;DHT22;18312;51.486;7.144;2024-03-06T11:37:03;12.20;99.90
31733;DHT22;18312;51.486;7.144;2024-03-06T11:39:36;12.10;99.90
31733;DHT22;18312;51.486;7.144;2024-03-06T11:42:06;12.40;99.90
31733;DHT22;18312;51.486;7.144;2024-03-06T11:44:35;12.60;99.90
31733;DHT22;18312;51.486;7.144;2024-03-06T11:47:03;12.60;99.90
31733;DHT22;18312;51.486;7.144;2024-03-06T11:49:31;12.30;99.90
31733;DHT22;18312;51.486;7.144;2024-03-06T11:52:00;12.50;99.90
31733;DHT22;18312;51.486;7.144;2024-03-06T11:54:29;12.00;99.90
31733;DHT22;18312;51.486;7.144;2024-03-06T11:56:57;12.20;99.90
31733;DHT22;18312;51.486;7.144;2024-03-06T11:59:26;12.10;99.90
31733;DHT22;18312;51.486;7.144;2024-03-06T12:01:55;11.90;99.90
31733;DHT22;18312;51.486;7.144;2024-03-06T12:04:24;11.90;99.90
31733;DHT22;18312;51.486;7.144;2024-03-06T12:06:52;11.90;99.90
31733;DHT22;18312;51.486;7.144;2024-03-06T12:09:20;11.60;99.90
31733;DHT22;18312;51.486;7.144;2024-03-06T12:11:47;11.70;99.90
31733;DHT22;18312;51.486;7.144;2024-03-06T12:17:28;12.40;99.90
31733;DHT22;18312;51.486;7.144;2024-03-06T12:20:33;12.70;99.90
31733;DHT22;18312;51.486;7.144;2024-03-06T12:23:41;12.90;99.90
31733;DHT22;18312;51.486;7.144;2024-03-06T12:26:36;12.80;99.90
31733;DHT22;18312;51.486;7.144;2024-03-06T12:29:37;13.10;99.90
31733;DHT22;18312;51.486;7.144;2024-03-06T12:32:27;13.60;99.90
31733;DHT22;18312;51.486;7.144;2024-03-06T12:38:15;13.60;98.50
31733;DHT22;18312;51.486;7.144;2024-03-06T12:40:51;13.30;97.80
31733;DHT22;18312;51.486;7.144;2024-03-06T12:43:23;13.10;98.70
31733;DHT22;18312;51.486;7.144;2024-03-06T12:45:56;13.10;99.90
31733;DHT22;18312;51.486;7.144;2024-03-06T12:48:46;13.10;99.80
31733;DHT22;18312;51.486;7.144;2024-03-06T12:51:38;12.90;99.90
31733;DHT22;18312;51.486;7.144;2024-03-06T12:58:11;12.50;99.90
31733;DHT22;18312;51.486;7.144;2024-03-06T13:01:15;12.60;99.90
31733;DHT22;18312;51.486;7.144;2024-03-06T13:04:06;12.20;99.90
31733;DHT22;18312;51.486;7.144;2024-03-06T13:07:08;12.10;99.90
31733;DHT22;18312;51.486;7.144;2024-03-06T13:09:55;12.80;99.90
31733;DHT22;18312;51.486;7.144;2024-03-06T13:12:31;12.60;99.90
31733;DHT22;18312;51.486;7.144;2024-03-06T13:14:59;12.80;99.90
31733;DHT22;18312;51.486;7.144;2024-03-06T13:35:24;11.60;99.90
31733;DHT22;18312;51.486;7.144;2024-03-06T13:38:31;11.60;99.90
31733;DHT22;18312;51.486;7.144;2024-03-06T13:41:17;11.60;99.90
31733;DHT22;18312;51.486;7.144;2024-03-06T13:43:53;11.50;99.90
31733;DHT22;18312;51.486;7.144;2024-03-06T13:46:26;11.40;99.90
31733;DHT22;18312;51.486;7.144;2024-03-06T13:49:04;11.20;99.90
31733;DHT22;18312;51.486;7.144;2024-03-06T13:51:42;11.20;99.90
31733;DHT22;18312;51.486;7.144;2024-03-06T13:54:09;11.50;99.90
31733;DHT22;18312;51.486;7.144;2024-03-06T13:56:36;11.60;99.90
31733;DHT22;18312;51.486;7.144;2024-03-06T13:59:35;11.80;99.90
31733;DHT22;18312;51.486;7.144;2024-03-06T14:05:25;12.30;99.90
31733;DHT22;18312;51.486;7.144;2024-03-06T14:07:55;12.40;99.90
31733;DHT22;18312;51.486;7.144;2024-03-06T14:10:22;12.60;99.90
31733;DHT22;18312;51.486;7.144;2024-03-06T14:12:50;12.70;99.90
31733;DHT22;18312;51.486;7.144;2024-03-06T14:15:18;12.80;99.90
31733;DHT22;18312;51.486;7.144;2024-03-06T14:17:45;13.00;99.40
31733;DHT22;18312;51.486;7.144;2024-03-06T14:20:12;12.60;99.90
31733;DHT22;18312;51.486;7.144;2024-03-06T14:22:41;12.50;99.70
31733;DHT22;18312;51.486;7.144;2024-03-06T14:25:10;12.20;99.40
31733;DHT22;18312;51.486;7.144;2024-03-06T14:27:37;12.20;99.70
31733;DHT22;18312;51.486;7.144;2024-03-06T14:30:06;12.00;99.90
31733;DHT22;18312;51.486;7.144;2024-03-06T14:32:33;11.70;99.90
31733;DHT22;18312;51.486;7.144;2024-03-06T14:35:01;11.60;99.90
31733;DHT22;18312;51.486;7.144;2024-03-06T14:37:28;11.50;99.90
31733;DHT22;18312;51.486;7.144;2024-03-06T14:39:55;11.50;99.90
31733;DHT22;18312;51.486;7.144;2024-03-06T14:42:24;11.50;99.90
31733;DHT22;18312;51.486;7.144;2024-03-06T14:44:51;11.40;99.90
31733;DHT22;18312;51.486;7.144;2024-03-06T14:47:18;11.20;99.90
31733;DHT22;18312;51.486;7.144;2024-03-06T14:49:45;11.10;99.90
31733;DHT22;18312;51.486;7.144;2024-03-06T14:52:12;11.20;99.90
31733;DHT22;18312;51.486;7.144;2024-03-06T14:54:40;11.20;99.90
31733;DHT22;18312;51.486;7.144;2024-03-06T14:57:08;11.20;99.90
31733;DHT22;18312;51.486;7.144;2024-03-06T14:59:36;11.20;99.90
31733;DHT22;18312;51.486;7.144;2024-03-06T15:02:04;11.20;99.90
31733;DHT22;18312;51.486;7.144;2024-03-06T15:04:32;11.20;99.90
31733;DHT22;18312;51.486;7.144;2024-03-06T15:06:58;11.20;99.90
31733;DHT22;18312;51.486;7.144;2024-03-06T15:09:25;11.20;99.90
31733;DHT22;18312;51.486;7.144;2024-03-06T15:11:53;11.20;99.90
31733;DHT22;18312;51.486;7.144;2024-03-06T15:14:22;11.20;99.90
31733;DHT22;18312;51.486;7.144;2024-03-06T15:16:50;11.20;99.90
31733;DHT22;18312;51.486;7.144;2024-03-06T15:19:17;11.20;99.90
31733;DHT22;18312;51.486;7.144;2024-03-06T15:21:44;11.20;99.90
31733;DHT22;18312;51.486;7.144;2024-03-06T15:24:12;11.30;99.90
31733;DHT22;18312;51.486;7.144;2024-03-06T15:26:39;11.30;99.90
31733;DHT22;18312;51.486;7.144;2024-03-06T15:29:06;11.30;99.90
31733;DHT22;18312;51.486;7.144;2024-03-06T15:31:35;11.20;99.90
31733;DHT22;18312;51.486;7.144;2024-03-06T15:34:03;11.20;99.80
31733;DHT22;18312;51.486;7.144;2024-03-06T15:36:30;11.20;99.90
31733;DHT22;18312;51.486;7.144;2024-03-06T15:38:57;11.30;98.00
31733;DHT22;18312;51.486;7.144;2024-03-06T15:41:25;11.30;97.50
31733;DHT22;18312;51.486;7.144;2024-03-06T15:43:52;11.30;98.30
31733;DHT22;18312;51.486;7.144;2024-03-06T15:46:20;11.40;98.60
31733;DHT22;18312;51.486;7.144;2024-03-06T15:48:47;11.40;97.90
31733;DHT22;18312;51.486;7.144;2024-03-06T15:51:16;11.40;98.30
31733;DHT22;18312;51.486;7.144;2024-03-06T15:53:43;11.50;98.70
31733;DHT22;18312;51.486;7.144;2024-03-06T15:56:11;11.50;97.80
31733;DHT22;18312;51.486;7.144;2024-03-06T15:58:39;11.50;97.50
31733;DHT22;18312;51.486;7.144;2024-03-06T16:01:06;11.40;96.30
31733;DHT22;18312;51.486;7.144;2024-03-06T16:03:33;11.30;96.00
31733;DHT22;18312;51.486;7.144;2024-03-06T16:06:00;11.40;96.20
31733;DHT22;18312;51.486;7.144;2024-03-06T16:08:29;11.40;96.30
31733;DHT22;18312;51.486;7.144;2024-03-06T16:10:57;11.40;98.70
31733;DHT22;18312;51.486;7.144;2024-03-06T16:13:26;11.30;99.90
31733;DHT22;18312;51.486;7.144;2024-03-06T16:15:53;11.30;99.90
31733;DHT22;18312;51.486;7.144;2024-03-06T16:18:20;11.20;99.90
31733;DHT22;18312;51.486;7.144;2024-03-06T16:20:48;11.20;99.90
31733;DHT22;18312;51.486;7.144;2024-03-06T16:23:16;11.20;99.90
31733;DHT22;18312;51.486;7.144;2024-03-06T16:25:47;11.20;99.90
31733;DHT22;18312;51.486;7.144;2024-03-06T16:28:14;11.20;99.90